sensor_id;sensor_type;location;lat;lon;timestamp;pressure;altitude;pressure_sealevel;temperature;humidity
84779;BME280;75010;50.866;20.620;2024-01-11T00:00:21;999;;;-9;80
84779;BME280;75010;50.866;20.620;2024-01-11T00:10:10;999;;;-9;80
84779;BME280;75010;50.866;20.620;2024-01-11T00:20:13;999;;;-8.7;80
84779;BME280;75010;50.866;20.620;2024-01-11T00:30:08;999;;;-8.4;78
84779;BME280;75010;50.866;20.620;2024-01-11T00:40:04;999;;;-8.2;77
84779;BME280;75010;50.866;20.620;2024-01-11T00:50:18;999;;;-8.2;77
84779;BME280;75010;50.866;20.620;2024-01-11T01:00:20;999;;;-8.3;76
84779;BME280;75010;50.866;20.620;2024-01-11T01:10:11;999;;;-8.3;76
84779;BME280;75010;50.866;20.620;2024-01-11T01:20:20;998;;;-8.4;77
84779;BME280;75010;50.866;20.620;2024-01-11T01:30:18;998;;;-8.6;77
84779;BME280;75010;50.866;20.620;2024-01-11T01:40:06;998;;;-8.7;77
84779;BME280;75010;50.866;20.620;2024-01-11T01:50:12;998;;;-8.5;77
84779;BME280;75010;50.866;20.620;2024-01-11T02:00:19;998;;;-8.5;77
84779;BME280;75010;50.866;20.620;2024-01-11T02:10:19;998;;;-8.6;77
84779;BME280;75010;50.866;20.620;2024-01-11T02:20:20;998;;;-8.6;77
84779;BME280;75010;50.866;20.620;2024-01-11T02:30:22;998;;;-8.7;77
84779;BME280;75010;50.866;20.620;2024-01-11T02:40:14;998;;;-8.7;77
84779;BME280;75010;50.866;20.620;2024-01-11T02:50:15;998;;;-9;78
84779;BME280;75010;50.866;20.620;2024-01-11T03:00:07;998;;;-9;78
84779;BME280;75010;50.866;20.620;2024-01-11T03:10:15;997;;;-9.1;78
84779;BME280;75010;50.866;20.620;2024-01-11T03:20:03;997;;;-9;78
84779;BME280;75010;50.866;20.620;2024-01-11T03:30:04;997;;;-9;78
84779;BME280;75010;50.866;20.620;2024-01-11T03:40:14;997;;;-8.9;77
84779;BME280;75010;50.866;20.620;2024-01-11T03:50:19;997;;;-8.7;77
84779;BME280;75010;50.866;20.620;2024-01-11T04:00:11;997;;;-8.3;77
84779;BME280;75010;50.866;20.620;2024-01-11T04:10:29;997;;;-8.3;77
84779;BME280;75010;50.866;20.620;2024-01-11T04:20:20;997;;;-8;75
84779;BME280;75010;50.866;20.620;2024-01-11T04:30:03;997;;;-7.8;74
84779;BME280;75010;50.866;20.620;2024-01-11T04:40:17;997;;;-7.9;73
84779;BME280;75010;50.866;20.620;2024-01-11T04:50:09;996;;;-7.8;72
84779;BME280;75010;50.866;20.620;2024-01-11T05:00:15;996;;;-7.8;72
84779;BME280;75010;50.866;20.620;2024-01-11T05:10:06;996;;;-8;73
84779;BME280;75010;50.866;20.620;2024-01-11T05:20:14;996;;;-7.8;72
84779;BME280;75010;50.866;20.620;2024-01-11T05:30:03;996;;;-7.6;71
84779;BME280;75010;50.866;20.620;2024-01-11T05:40:10;996;;;-7.5;71
84779;BME280;75010;50.866;20.620;2024-01-11T05:50:11;996;;;-7.2;71
84779;BME280;75010;50.866;20.620;2024-01-11T06:00:14;996;;;-7.2;71
84779;BME280;75010;50.866;20.620;2024-01-11T06:10:03;995;;;-7.5;71
84779;BME280;75010;50.866;20.620;2024-01-11T06:20:14;995;;;-7.1;69
84779;BME280;75010;50.866;20.620;2024-01-11T06:30:13;995;;;-6.6;69
84779;BME280;75010;50.866;20.620;2024-01-11T06:40:10;995;;;-6.2;68
84779;BME280;75010;50.866;20.620;2024-01-11T06:50:12;995;;;-5.7;65
84779;BME280;75010;50.866;20.620;2024-01-11T07:00:12;995;;;-5.7;65
84779;BME280;75010;50.866;20.620;2024-01-11T07:10:20;995;;;-5.3;64
84779;BME280;75010;50.866;20.620;2024-01-11T07:20:18;995;;;-5;64
84779;BME280;75010;50.866;20.620;2024-01-11T07:30:22;995;;;-4.7;63
84779;BME280;75010;50.866;20.620;2024-01-11T07:40:12;994;;;-4.5;63
84779;BME280;75010;50.866;20.620;2024-01-11T07:50:14;995;;;-3.9;62
84779;BME280;75010;50.866;20.620;2024-01-11T08:00:22;995;;;-3.9;62
84779;BME280;75010;50.866;20.620;2024-01-11T08:10:17;994;;;-3.7;61
84779;BME280;75010;50.866;20.620;2024-01-11T08:20:13;994;;;-3.5;60
84779;BME280;75010;50.866;20.620;2024-01-11T08:30:10;994;;;-3.3;59
84779;BME280;75010;50.866;20.620;2024-01-11T08:40:03;994;;;-3;58
84779;BME280;75010;50.866;20.620;2024-01-11T08:50:12;994;;;-2.5;56
84779;BME280;75010;50.866;20.620;2024-01-11T09:00:12;994;;;-2.5;56
84779;BME280;75010;50.866;20.620;2024-01-11T09:10:12;994;;;-1.8;54
84779;BME280;75010;50.866;20.620;2024-01-11T09:20:28;994;;;-1.6;53
84779;BME280;75010;50.866;20.620;2024-01-11T09:30:16;994;;;-1.5;53
84779;BME280;75010;50.866;20.620;2024-01-11T09:40:19;994;;;-1.2;54
84779;BME280;75010;50.866;20.620;2024-01-11T09:50:04;994;;;-0.8;52
84779;BME280;75010;50.866;20.620;2024-01-11T10:00:31;994;;;-0.9;54
84779;BME280;75010;50.866;20.620;2024-01-11T10:10:13;994;;;-0.9;54
84779;BME280;75010;50.866;20.620;2024-01-11T10:20:15;994;;;-0.9;54
84779;BME280;75010;50.866;20.620;2024-01-11T10:30:29;994;;;-1.1;55
84779;BME280;75010;50.866;20.620;2024-01-11T10:40:11;994;;;-1.1;56
84779;BME280;75010;50.866;20.620;2024-01-11T10:50:30;994;;;-1.1;56
84779;BME280;75010;50.866;20.620;2024-01-11T11:00:24;994;;;-1.1;56
84779;BME280;75010;50.866;20.620;2024-01-11T11:10:04;994;;;-1.3;57
84779;BME280;75010;50.866;20.620;2024-01-11T11:20:03;993;;;-1.3;58
84779;BME280;75010;50.866;20.620;2024-01-11T11:30:14;993;;;-1.3;58
84779;BME280;75010;50.866;20.620;2024-01-11T11:40:03;993;;;-1.1;59
84779;BME280;75010;50.866;20.620;2024-01-11T11:50:13;993;;;-1.1;59
84779;BME280;75010;50.866;20.620;2024-01-11T12:00:08;993;;;-0.5;56
84779;BME280;75010;50.866;20.620;2024-01-11T12:10:04;993;;;-0.2;56
84779;BME280;75010;50.866;20.620;2024-01-11T12:20:14;993;;;-0.2;57
84779;BME280;75010;50.866;20.620;2024-01-11T12:30:17;993;;;-0.2;57
84779;BME280;75010;50.866;20.620;2024-01-11T12:40:21;992;;;0.3;56
84779;BME280;75010;50.866;20.620;2024-01-11T12:50:19;992;;;0.1;58
84779;BME280;75010;50.866;20.620;2024-01-11T13:00:15;992;;;0.1;58
84779;BME280;75010;50.866;20.620;2024-01-11T13:10:16;992;;;-0.7;65
84779;BME280;75010;50.866;20.620;2024-01-11T13:20:13;992;;;-0.9;68
84779;BME280;75010;50.866;20.620;2024-01-11T13:30:04;992;;;-1.2;71
84779;BME280;75010;50.866;20.620;2024-01-11T13:40:03;992;;;-1.2;71
84779;BME280;75010;50.866;20.620;2024-01-11T13:50:17;992;;;-1.4;71
84779;BME280;75010;50.866;20.620;2024-01-11T14:00:21;992;;;-1.3;71
84779;BME280;75010;50.866;20.620;2024-01-11T14:10:11;992;;;-1.4;72
84779;BME280;75010;50.866;20.620;2024-01-11T14:20:09;992;;;-1.4;72
84779;BME280;75010;50.866;20.620;2024-01-11T14:30:13;992;;;-1.4;72
84779;BME280;75010;50.866;20.620;2024-01-11T14:40:04;992;;;-1.8;74
84779;BME280;75010;50.866;20.620;2024-01-11T14:50:16;992;;;-1.7;74
84779;BME280;75010;50.866;20.620;2024-01-11T15:00:18;992;;;-1.9;75
84779;BME280;75010;50.866;20.620;2024-01-11T15:10:03;992;;;-2;76
84779;BME280;75010;50.866;20.620;2024-01-11T15:20:18;992;;;-2.2;76
84779;BME280;75010;50.866;20.620;2024-01-11T15:30:17;992;;;-2.2;76
84779;BME280;75010;50.866;20.620;2024-01-11T15:40:13;992;;;-2.5;77
84779;BME280;75010;50.866;20.620;2024-01-11T15:50:13;992;;;-2.7;78
84779;BME280;75010;50.866;20.620;2024-01-11T16:00:12;992;;;-2.7;79
84779;BME280;75010;50.866;20.620;2024-01-11T16:10:11;992;;;-2.7;80
84779;BME280;75010;50.866;20.620;2024-01-11T16:20:18;992;;;-2.6;80
84779;BME280;75010;50.866;20.620;2024-01-11T16:30:19;992;;;-2.6;80
84779;BME280;75010;50.866;20.620;2024-01-11T16:40:13;992;;;-2.5;80
84779;BME280;75010;50.866;20.620;2024-01-11T16:50:12;992;;;-2.5;80
84779;BME280;75010;50.866;20.620;2024-01-11T17:00:05;992;;;-2.4;81
84779;BME280;75010;50.866;20.620;2024-01-11T17:10:10;992;;;-2.4;82
84779;BME280;75010;50.866;20.620;2024-01-11T17:20:21;992;;;-2.3;83
84779;BME280;75010;50.866;20.620;2024-01-11T17:30:11;992;;;-2.3;83
84779;BME280;75010;50.866;20.620;2024-01-11T17:40:03;992;;;-2.3;82
84779;BME280;75010;50.866;20.620;2024-01-11T17:50:11;992;;;-2.1;82
84779;BME280;75010;50.866;20.620;2024-01-11T18:00:03;992;;;-2.1;82
84779;BME280;75010;50.866;20.620;2024-01-11T18:10:03;993;;;-2;82
84779;BME280;75010;50.866;20.620;2024-01-11T18:20:03;993;;;-1.9;83
84779;BME280;75010;50.866;20.620;2024-01-11T18:30:09;993;;;-1.9;83
84779;BME280;75010;50.866;20.620;2024-01-11T18:40:15;993;;;-1.8;83
84779;BME280;75010;50.866;20.620;2024-01-11T18:50:11;993;;;-1.8;83
84779;BME280;75010;50.866;20.620;2024-01-11T19:00:11;992;;;-1.7;84
84779;BME280;75010;50.866;20.620;2024-01-11T19:10:15;993;;;-1.6;84
84779;BME280;75010;50.866;20.620;2024-01-11T19:20:20;993;;;-1.5;84
84779;BME280;75010;50.866;20.620;2024-01-11T19:30:04;992;;;-1.4;84
84779;BME280;75010;50.866;20.620;2024-01-11T19:40:09;992;;;-1.3;84
84779;BME280;75010;50.866;20.620;2024-01-11T19:50:06;992;;;-1.2;85
84779;BME280;75010;50.866;20.620;2024-01-11T20:00:11;992;;;-1;85
84779;BME280;75010;50.866;20.620;2024-01-11T20:10:16;992;;;-1;85
84779;BME280;75010;50.866;20.620;2024-01-11T20:20:18;992;;;-0.9;85
84779;BME280;75010;50.866;20.620;2024-01-11T20:30:06;992;;;-0.9;85
84779;BME280;75010;50.866;20.620;2024-01-11T20:40:15;993;;;-0.8;86
84779;BME280;75010;50.866;20.620;2024-01-11T20:50:03;993;;;-0.7;86
84779;BME280;75010;50.866;20.620;2024-01-11T21:00:08;993;;;-0.7;86
84779;BME280;75010;50.866;20.620;2024-01-11T21:10:14;993;;;-0.4;86
84779;BME280;75010;50.866;20.620;2024-01-11T21:20:11;993;;;-0.3;86
84779;BME280;75010;50.866;20.620;2024-01-11T21:30:12;993;;;-0.1;86
84779;BME280;75010;50.866;20.620;2024-01-11T21:40:20;993;;;0;86
84779;BME280;75010;50.866;20.620;2024-01-11T21:50:16;993;;;0.3;85
84779;BME280;75010;50.866;20.620;2024-01-11T22:00:04;993;;;0.3;85
84779;BME280;75010;50.866;20.620;2024-01-11T22:10:09;993;;;0.3;85
84779;BME280;75010;50.866;20.620;2024-01-11T22:20:04;993;;;0.3;85
84779;BME280;75010;50.866;20.620;2024-01-11T22:30:19;993;;;0.4;85
84779;BME280;75010;50.866;20.620;2024-01-11T22:40:15;993;;;0.4;84
84779;BME280;75010;50.866;20.620;2024-01-11T22:50:11;993;;;0.4;84
84779;BME280;75010;50.866;20.620;2024-01-11T23:00:30;993;;;0.4;84
84779;BME280;75010;50.866;20.620;2024-01-11T23:10:08;993;;;0.4;84
84779;BME280;75010;50.866;20.620;2024-01-11T23:20:14;994;;;0.4;84
84779;BME280;75010;50.866;20.620;2024-01-11T23:30:14;994;;;0.5;83
84779;BME280;75010;50.866;20.620;2024-01-11T23:40:04;994;;;0.4;82
84779;BME280;75010;50.866;20.620;2024-01-11T23:50:18;994;;;0.3;81
